LEVX/VGO METAR and TAF weather

Enter ICAO airport designator
Station Type Date Time Source
LEVX METAR 2019/08/25 20:00 UTC NOAA

LEVX 252000Z VRB02KT 9999 FEW030CB 23/19 Q101


Station Type Date Time Source
LEVX Decoded METAR 2019/08/25 20:00 UTC NOAA

Station name not available
Aug 25, 2019 - 04:00 PM EDT / 2019.08.25 2000 UTC
Wind: Variable at 2 MPH (2 KT):0
Visibility: greater than 7 mile(s):0
Sky conditions: mostly clear
Weather: Cumulonimbus clouds observed
Temperature: 73 F (23 C)
Dew Point: 66 F (19 C)
Relative Humidity: 78%
Pressure (altimeter): 29.94 in. Hg (1014 hPa)
ob: LEVX 252000Z VRB02KT 9999 FEW030CB 23/19 Q1014 NOSIG
cycle: 20

Station Type Date Time Source
LEVX TAF 2019/08/25 19:52 UTC NOAA

TAF
AMD LEVX 251945Z 2519/2618 VRB03KT CAVOK TX26/2614Z TN17/2606Z
TEMPO 2519/2524 SCT030TCU PROB40
TEMPO 2520/2522 3000 SHRA TS SCT030CB PROB40
TEMPO 2609/2618 3000 SHRA TS SCT030TCU SCT040CB
TEMPO 2612/2618 27010KT

Example: see airport list